createdAt,value
2018-12-07T00:00:58.627Z,2.53
2018-12-07T00:03:28.238Z,1.10
2018-12-07T00:05:57.092Z,1.30
2018-12-07T00:08:25.994Z,1.00
2018-12-07T00:10:54.899Z,1.70
2018-12-07T00:13:23.933Z,1.80
2018-12-07T00:15:52.855Z,1.50
2018-12-07T00:18:21.841Z,0.90
2018-12-07T00:20:50.769Z,1.00
2018-12-07T00:23:19.700Z,1.10
2018-12-07T00:25:48.574Z,1.27
2018-12-07T00:28:17.557Z,1.10
2018-12-07T00:30:46.469Z,0.90
2018-12-07T00:33:15.517Z,1.00
2018-12-07T00:35:44.425Z,0.80
2018-12-07T00:38:13.317Z,0.83
2018-12-07T00:40:42.255Z,0.80
2018-12-07T00:43:11.125Z,0.70
2018-12-07T00:45:40.045Z,0.97
2018-12-07T00:48:08.920Z,0.80
2018-12-07T00:50:37.860Z,1.33
2018-12-07T00:53:06.749Z,0.73
2018-12-07T00:55:38.457Z,0.83
2018-12-07T00:58:07.340Z,1.13
2018-12-07T01:00:36.266Z,0.90
2018-12-07T01:03:05.191Z,0.80
2018-12-07T01:05:34.128Z,0.70
2018-12-07T01:08:03.057Z,0.80
2018-12-07T01:10:32.012Z,1.20
2018-12-07T01:13:00.933Z,1.13
2018-12-07T01:15:29.860Z,1.37
2018-12-07T01:17:58.748Z,0.57
2018-12-07T01:20:27.680Z,1.00
2018-12-07T01:22:56.573Z,1.03
2018-12-07T01:25:25.484Z,0.80
2018-12-07T01:27:54.376Z,1.07
2018-12-07T01:30:23.372Z,1.00
2018-12-07T01:32:52.269Z,0.80
2018-12-07T01:35:21.200Z,0.83
2018-12-07T01:37:50.081Z,0.90
2018-12-07T01:40:25.025Z,0.90
2018-12-07T01:42:53.997Z,0.70
2018-12-07T01:45:22.916Z,1.27
2018-12-07T01:47:51.804Z,1.00
2018-12-07T01:50:20.718Z,1.00
2018-12-07T01:52:49.592Z,0.80
2018-12-07T01:55:18.538Z,0.77
2018-12-07T01:57:47.418Z,1.20
2018-12-07T02:00:16.393Z,0.80
2018-12-07T02:02:45.277Z,0.80
2018-12-07T02:05:14.181Z,0.77
2018-12-07T02:07:43.128Z,0.97
2018-12-07T02:10:12.015Z,0.93
2018-12-07T02:12:40.903Z,0.90
2018-12-07T02:15:09.779Z,1.00
2018-12-07T02:17:38.716Z,0.97
2018-12-07T02:20:07.623Z,0.80
2018-12-07T02:22:36.521Z,0.70
2018-12-07T02:25:05.565Z,1.00
2018-12-07T02:27:38.650Z,0.80
2018-12-07T02:30:07.502Z,1.00
2018-12-07T02:32:36.418Z,0.87
2018-12-07T02:35:05.307Z,0.60
2018-12-07T02:37:34.204Z,0.50
2018-12-07T02:40:03.090Z,0.97
2018-12-07T02:42:31.997Z,0.50
2018-12-07T02:45:00.866Z,0.60
2018-12-07T02:47:29.759Z,0.50
2018-12-07T02:49:58.655Z,0.53
2018-12-07T02:52:27.564Z,0.70
2018-12-07T02:54:56.438Z,1.00
2018-12-07T02:57:25.360Z,0.60
2018-12-07T02:59:54.226Z,0.87
2018-12-07T03:02:23.125Z,0.83
2018-12-07T03:04:52.218Z,1.03
2018-12-07T03:07:21.613Z,0.70
2018-12-07T03:09:50.685Z,0.80
2018-12-07T03:12:19.698Z,1.03
2018-12-07T03:14:48.845Z,1.00
2018-12-07T03:17:17.963Z,1.30
2018-12-07T03:19:47.133Z,1.07
2018-12-07T03:22:16.277Z,1.03
2018-12-07T03:24:45.444Z,1.47
2018-12-07T03:27:14.522Z,1.20
2018-12-07T03:29:43.664Z,0.83
2018-12-07T03:32:12.780Z,0.93
2018-12-07T03:34:41.928Z,0.87
2018-12-07T03:37:11.042Z,0.90
2018-12-07T03:39:40.216Z,0.77
2018-12-07T03:42:09.327Z,0.80
2018-12-07T03:44:38.531Z,0.70
2018-12-07T03:47:07.699Z,0.70
2018-12-07T03:49:36.802Z,0.50
2018-12-07T03:52:05.885Z,0.77
2018-12-07T03:54:35.105Z,0.70
2018-12-07T03:57:04.104Z,0.63
2018-12-07T03:59:33.294Z,0.70
2018-12-07T04:02:02.408Z,0.70
2018-12-07T04:04:31.580Z,0.90
2018-12-07T04:07:00.648Z,0.70
2018-12-07T04:09:29.765Z,0.70
2018-12-07T04:11:58.845Z,0.67
2018-12-07T04:14:27.977Z,0.77
2018-12-07T04:16:57.068Z,0.80
2018-12-07T04:19:26.250Z,0.90
2018-12-07T04:21:55.380Z,0.60
2018-12-07T04:24:24.553Z,0.90
2018-12-07T04:26:53.702Z,0.70
2018-12-07T04:29:22.776Z,1.27
2018-12-07T04:31:51.951Z,0.90
2018-12-07T04:34:21.065Z,0.80
2018-12-07T04:36:50.264Z,1.10
2018-12-07T04:39:19.366Z,1.10
2018-12-07T04:41:48.531Z,1.30
2018-12-07T04:44:17.664Z,0.90
2018-12-07T04:46:46.838Z,1.00
2018-12-07T04:49:16.025Z,0.90
2018-12-07T04:51:45.222Z,1.03
2018-12-07T04:54:14.421Z,0.93
2018-12-07T04:56:43.625Z,1.07
2018-12-07T04:59:12.818Z,1.27
2018-12-07T05:01:42.254Z,1.07
2018-12-07T05:04:11.340Z,1.40
2018-12-07T05:06:40.522Z,1.57
2018-12-07T05:09:09.644Z,1.37
2018-12-07T05:11:38.822Z,1.50
2018-12-07T05:14:07.829Z,1.43
2018-12-07T05:16:36.996Z,1.70
2018-12-07T05:19:06.032Z,1.60
2018-12-07T05:21:35.088Z,1.20
2018-12-07T05:24:04.103Z,2.07
2018-12-07T05:26:33.201Z,1.47
2018-12-07T05:29:02.273Z,1.30
2018-12-07T05:31:31.310Z,1.30
2018-12-07T05:34:00.465Z,1.90
2018-12-07T05:36:29.572Z,1.20
2018-12-07T05:38:58.682Z,1.90
2018-12-07T05:41:27.938Z,1.03
2018-12-07T05:43:58.624Z,1.87
2018-12-07T05:46:27.992Z,1.10
2018-12-07T05:48:57.112Z,2.00
2018-12-07T05:51:26.308Z,1.60
2018-12-07T05:53:55.485Z,1.40
2018-12-07T05:56:24.588Z,1.53
2018-12-07T05:58:53.772Z,1.63
2018-12-07T06:01:22.855Z,1.93
2018-12-07T06:03:52.300Z,1.50
2018-12-07T06:06:21.411Z,1.13
2018-12-07T06:08:50.584Z,1.43
2018-12-07T06:11:19.685Z,1.30
2018-12-07T06:13:48.845Z,1.13
2018-12-07T06:16:17.997Z,1.37
2018-12-07T06:18:47.147Z,1.20
2018-12-07T06:21:16.323Z,1.00
2018-12-07T06:23:45.535Z,1.30
2018-12-07T06:26:14.682Z,0.83
2018-12-07T06:28:43.847Z,1.47
2018-12-07T06:31:12.978Z,1.00
2018-12-07T06:33:42.145Z,1.33
2018-12-07T06:36:11.268Z,1.57
2018-12-07T06:38:40.424Z,1.17
2018-12-07T06:41:09.552Z,1.30
2018-12-07T06:43:38.727Z,1.43
2018-12-07T06:46:07.846Z,1.00
2018-12-07T06:48:37.003Z,1.10
2018-12-07T06:51:06.165Z,1.20
2018-12-07T06:53:35.306Z,1.43
2018-12-07T06:56:04.437Z,1.90
2018-12-07T06:58:33.600Z,1.90
2018-12-07T07:01:02.722Z,1.07
2018-12-07T07:03:31.918Z,1.27
2018-12-07T07:06:01.040Z,1.47
2018-12-07T07:08:30.205Z,1.93
2018-12-07T07:10:59.381Z,1.60
2018-12-07T07:13:28.528Z,1.60
2018-12-07T07:15:57.681Z,1.63
2018-12-07T07:18:26.887Z,1.30
2018-12-07T07:20:56.004Z,1.67
2018-12-07T07:23:25.185Z,1.63
2018-12-07T07:25:54.300Z,1.37
2018-12-07T07:28:23.475Z,2.17
2018-12-07T07:30:52.596Z,1.60
2018-12-07T07:33:21.788Z,2.07
2018-12-07T07:35:50.970Z,2.20
2018-12-07T07:38:20.168Z,1.93
2018-12-07T07:40:49.294Z,2.40
2018-12-07T07:43:18.380Z,2.20
2018-12-07T07:45:47.580Z,2.23
2018-12-07T07:48:16.677Z,2.10
2018-12-07T07:50:45.854Z,2.07
2018-12-07T07:53:14.956Z,2.53
2018-12-07T07:55:44.134Z,2.50
2018-12-07T07:58:13.265Z,1.90
2018-12-07T08:00:42.455Z,2.00
2018-12-07T08:03:11.575Z,1.57
2018-12-07T08:05:40.752Z,1.90
2018-12-07T08:08:09.856Z,2.13
2018-12-07T08:10:39.135Z,1.90
2018-12-07T08:13:08.248Z,2.10
2018-12-07T08:15:37.432Z,2.20
2018-12-07T08:18:06.544Z,1.97
2018-12-07T08:20:35.722Z,2.00
2018-12-07T08:23:04.850Z,2.20
2018-12-07T08:25:34.204Z,1.33
2018-12-07T08:28:03.237Z,1.43
2018-12-07T08:30:32.406Z,2.03
2018-12-07T08:33:01.544Z,2.47
2018-12-07T08:35:30.697Z,1.80
2018-12-07T08:38:00.934Z,2.10
2018-12-07T08:40:30.507Z,2.47
2018-12-07T08:42:59.710Z,2.30
2018-12-07T08:45:29.063Z,1.50
2018-12-07T08:47:58.217Z,2.03
2018-12-07T08:50:28.388Z,2.20
2018-12-07T08:52:57.842Z,1.73
2018-12-07T08:55:26.934Z,1.47
2018-12-07T08:57:55.904Z,1.50
2018-12-07T09:00:26.104Z,2.30
2018-12-07T09:02:55.028Z,2.50
2018-12-07T09:05:23.963Z,2.40
2018-12-07T09:07:54.235Z,2.20
2018-12-07T09:10:23.308Z,2.13
2018-12-07T09:12:52.356Z,2.10
2018-12-07T09:15:21.771Z,2.57
2018-12-07T09:17:50.744Z,2.43
2018-12-07T09:20:19.656Z,2.23
2018-12-07T09:22:48.624Z,3.13
2018-12-07T09:25:17.664Z,2.87
2018-12-07T09:27:46.745Z,2.63
2018-12-07T09:30:15.767Z,1.20
2018-12-07T09:32:44.711Z,1.33
2018-12-07T09:35:13.792Z,2.53
2018-12-07T09:37:42.716Z,1.80
2018-12-07T09:40:11.651Z,2.33
2018-12-07T09:42:40.872Z,2.70
2018-12-07T09:45:09.760Z,2.40
2018-12-07T09:47:38.822Z,2.00
2018-12-07T09:50:08.451Z,2.73
2018-12-07T09:52:37.451Z,2.20
2018-12-07T09:55:06.392Z,1.73
2018-12-07T09:57:35.393Z,2.00
2018-12-07T10:00:04.921Z,1.30
2018-12-07T10:02:33.885Z,1.80
2018-12-07T10:05:02.848Z,1.10
2018-12-07T10:07:31.779Z,1.67
2018-12-07T10:10:00.723Z,1.50
2018-12-07T10:12:29.696Z,1.50
2018-12-07T10:14:58.765Z,0.90
2018-12-07T10:17:27.715Z,2.07
2018-12-07T10:19:56.654Z,1.43
2018-12-07T10:22:25.593Z,1.37
2018-12-07T10:24:54.492Z,1.33
2018-12-07T10:27:23.505Z,1.17
2018-12-07T10:29:52.414Z,0.63
2018-12-07T10:32:21.478Z,1.10
2018-12-07T10:34:50.390Z,1.03
2018-12-07T10:37:19.417Z,1.20
2018-12-07T10:39:48.324Z,1.70
2018-12-07T10:42:17.251Z,0.90
2018-12-07T10:44:46.167Z,1.00
2018-12-07T10:47:15.056Z,1.27
2018-12-07T10:49:43.978Z,1.37
2018-12-07T10:52:12.879Z,1.20
2018-12-07T10:54:41.886Z,1.10
2018-12-07T10:57:10.816Z,1.40
2018-12-07T10:59:39.813Z,1.80
2018-12-07T11:02:13.853Z,1.10
2018-12-07T11:04:48.404Z,1.17
2018-12-07T11:07:22.497Z,2.00
2018-12-07T11:09:56.662Z,1.33
2018-12-07T11:12:30.856Z,1.50
2018-12-07T11:16:04.493Z,1.00
2018-12-07T11:18:38.694Z,1.27
2018-12-07T11:21:12.908Z,1.27
2018-12-07T11:23:47.102Z,1.00
2018-12-07T11:26:21.209Z,1.03
2018-12-07T11:28:55.397Z,1.27
2018-12-07T11:31:29.502Z,0.90
2018-12-07T11:34:03.654Z,1.00
2018-12-07T11:36:32.583Z,1.03
2018-12-07T11:39:01.574Z,0.93
2018-12-07T11:41:30.489Z,0.93
2018-12-07T11:43:59.489Z,1.23
2018-12-07T11:46:28.389Z,1.47
2018-12-07T11:48:57.364Z,0.90
2018-12-07T11:51:26.305Z,1.40
2018-12-07T11:53:55.249Z,1.03
2018-12-07T11:56:24.193Z,1.10
2018-12-07T11:58:53.153Z,1.10
2018-12-07T12:01:22.055Z,1.20
2018-12-07T12:03:50.983Z,1.83
2018-12-07T12:06:19.965Z,1.20
2018-12-07T12:08:48.895Z,1.27
2018-12-07T12:11:17.877Z,1.63
2018-12-07T12:13:46.833Z,1.40
2018-12-07T12:16:15.848Z,1.30
2018-12-07T12:18:44.779Z,1.20
2018-12-07T12:21:13.733Z,1.13
2018-12-07T12:23:42.644Z,0.83
2018-12-07T12:26:11.601Z,1.00
2018-12-07T12:28:40.507Z,1.30
2018-12-07T12:31:09.477Z,1.47
2018-12-07T12:33:38.425Z,0.77
2018-12-07T12:36:07.384Z,0.93
2018-12-07T12:38:36.301Z,1.63
2018-12-07T12:41:05.325Z,1.03
2018-12-07T12:43:34.259Z,0.60
2018-12-07T12:46:03.197Z,1.00
2018-12-07T12:48:32.131Z,0.73
2018-12-07T12:51:01.046Z,1.00
2018-12-07T12:53:30.204Z,1.00
2018-12-07T12:55:59.161Z,0.97
2018-12-07T12:58:28.036Z,0.60
2018-12-07T13:00:56.976Z,0.80
2018-12-07T13:03:25.872Z,0.63
2018-12-07T13:05:54.804Z,0.50
2018-12-07T13:08:23.711Z,0.50
2018-12-07T13:10:52.648Z,0.87
2018-12-07T13:13:21.645Z,0.40
2018-12-07T13:15:50.595Z,0.90
2018-12-07T13:18:19.520Z,0.60
2018-12-07T13:20:48.417Z,0.60
2018-12-07T13:23:17.416Z,0.40
2018-12-07T13:25:46.348Z,0.53
2018-12-07T13:28:15.279Z,0.50
2018-12-07T13:30:44.170Z,0.50
2018-12-07T13:33:13.126Z,0.40
2018-12-07T13:35:42.022Z,0.40
2018-12-07T13:38:10.989Z,0.50
2018-12-07T13:40:39.999Z,0.50
2018-12-07T13:43:09.291Z,0.37
2018-12-07T13:45:38.482Z,0.30
2018-12-07T13:48:07.745Z,0.40
2018-12-07T13:50:42.445Z,0.53
2018-12-07T13:53:11.679Z,0.50
2018-12-07T13:55:40.768Z,0.40
2018-12-07T13:58:09.854Z,0.83
2018-12-07T14:00:38.838Z,0.67
2018-12-07T14:03:07.949Z,0.50
2018-12-07T14:05:37.042Z,0.40
2018-12-07T14:08:06.050Z,0.57
2018-12-07T14:10:35.085Z,0.50
2018-12-07T14:13:04.047Z,0.70
2018-12-07T14:15:33.215Z,0.50
2018-12-07T14:18:02.412Z,0.60
2018-12-07T14:20:31.473Z,0.70
2018-12-07T14:23:00.453Z,0.40
2018-12-07T14:25:29.401Z,0.50
2018-12-07T14:27:58.483Z,0.40
2018-12-07T14:30:27.580Z,0.50
2018-12-07T14:32:56.597Z,0.50
2018-12-07T14:35:25.698Z,0.50
2018-12-07T14:37:54.934Z,0.50
2018-12-07T14:40:23.983Z,0.40
2018-12-07T14:42:52.891Z,0.50
2018-12-07T14:45:21.810Z,0.70
2018-12-07T14:47:50.921Z,0.50
2018-12-07T14:50:20.110Z,0.60
2018-12-07T14:52:49.489Z,0.47
2018-12-07T14:55:18.461Z,0.60
2018-12-07T14:57:47.577Z,0.50
2018-12-07T15:00:16.785Z,0.40
2018-12-07T15:02:45.667Z,0.60
2018-12-07T15:05:14.676Z,0.60
2018-12-07T15:07:43.691Z,0.70
2018-12-07T15:10:13.025Z,0.50
2018-12-07T15:12:42.102Z,0.40
2018-12-07T15:15:11.042Z,0.60
2018-12-07T15:17:39.934Z,0.77
2018-12-07T15:20:10.957Z,0.73
2018-12-07T15:22:39.952Z,0.33
2018-12-07T15:25:08.971Z,0.53
2018-12-07T15:27:38.138Z,0.30
2018-12-07T15:30:08.614Z,0.40
2018-12-07T15:32:37.731Z,0.40
2018-12-07T15:35:08.249Z,0.30
2018-12-07T15:37:37.483Z,0.50
2018-12-07T15:40:08.447Z,0.70
2018-12-07T15:42:37.578Z,0.80
2018-12-07T15:45:07.888Z,0.77
2018-12-07T15:47:37.394Z,0.53
2018-12-07T15:50:08.360Z,0.40
2018-12-07T15:52:37.430Z,0.47
2018-12-07T15:55:06.945Z,0.77
2018-12-07T15:57:36.128Z,0.53
2018-12-07T16:00:05.874Z,0.50
2018-12-07T16:02:35.231Z,0.73
2018-12-07T16:05:04.715Z,0.30
2018-12-07T16:07:33.838Z,0.53
2018-12-07T16:10:03.093Z,0.40
2018-12-07T16:12:32.319Z,0.53
2018-12-07T16:15:01.364Z,0.50
2018-12-07T16:17:30.654Z,0.50
2018-12-07T16:19:59.984Z,0.30
2018-12-07T16:22:29.128Z,0.50
2018-12-07T16:24:58.096Z,0.70
2018-12-07T16:27:27.336Z,0.77
2018-12-07T16:29:56.567Z,0.57
2018-12-07T16:32:27.235Z,0.50
2018-12-07T17:37:43.030Z,0.72
2018-12-07T17:40:12.109Z,0.50
2018-12-07T17:42:41.208Z,0.57
2018-12-07T17:45:10.469Z,0.67
2018-12-07T17:47:39.534Z,0.70
2018-12-07T17:50:09.240Z,0.50
2018-12-07T17:52:38.484Z,0.60
2018-12-07T17:55:07.676Z,0.63
2018-12-07T17:57:37.836Z,0.67
2018-12-07T18:00:09.452Z,2.50
2018-12-07T18:02:38.489Z,0.70
2018-12-07T18:05:07.787Z,1.40
2018-12-07T18:07:36.818Z,0.80
2018-12-07T18:10:07.407Z,1.37
2018-12-07T18:12:36.545Z,2.07
2018-12-07T18:15:07.281Z,2.07
2018-12-07T18:17:36.344Z,1.00
2018-12-07T18:20:06.968Z,1.17
2018-12-07T18:22:36.391Z,0.80
2018-12-07T18:25:06.957Z,1.40
2018-12-07T18:27:36.253Z,2.90
2018-12-07T18:30:05.402Z,0.73
2018-12-07T18:32:34.535Z,1.10
2018-12-07T18:35:03.561Z,4.00
2018-12-07T18:37:32.920Z,0.70
2018-12-07T18:40:02.085Z,0.77
2018-12-07T18:42:31.357Z,0.80
2018-12-07T18:45:00.805Z,1.10
2018-12-07T18:47:30.201Z,1.50
2018-12-07T18:49:59.256Z,0.80
2018-12-07T18:52:28.707Z,1.37
2018-12-07T18:54:57.652Z,0.93
2018-12-07T18:57:26.979Z,1.30
2018-12-07T18:59:56.026Z,1.80
2018-12-07T19:02:25.528Z,0.40
2018-12-07T19:04:54.559Z,0.40
2018-12-07T19:07:24.902Z,0.50
2018-12-07T19:09:54.825Z,0.40
2018-12-07T19:12:23.862Z,0.57
2018-12-07T19:14:53.086Z,0.53
2018-12-07T19:17:22.144Z,0.40
2018-12-07T19:19:51.079Z,0.70
2018-12-07T19:22:20.078Z,0.40
2018-12-07T19:24:49.294Z,0.90
2018-12-07T19:27:18.434Z,1.23
2018-12-07T19:29:47.773Z,0.73
2018-12-07T19:32:17.829Z,0.30
2018-12-07T19:34:46.930Z,0.43
2018-12-07T19:37:16.107Z,0.30
2018-12-07T19:39:45.262Z,0.20
2018-12-07T19:42:14.588Z,0.30
2018-12-07T19:44:43.779Z,0.30
2018-12-07T19:47:13.066Z,0.27
2018-12-07T19:49:42.283Z,0.57
2018-12-07T19:52:11.398Z,1.23
2018-12-07T19:54:40.459Z,0.50
2018-12-07T19:57:09.573Z,0.40
2018-12-07T19:59:38.795Z,0.30
2018-12-07T20:02:07.896Z,0.60
2018-12-07T20:04:37.182Z,0.30
2018-12-07T20:07:06.206Z,0.50
2018-12-07T20:09:35.555Z,0.53
2018-12-07T20:12:04.890Z,0.40
2018-12-07T20:14:33.910Z,0.60
2018-12-07T20:17:04.837Z,0.50
2018-12-07T20:19:33.950Z,0.30
2018-12-07T20:22:02.852Z,0.50
2018-12-07T20:24:31.891Z,0.70
2018-12-07T20:27:01.051Z,0.27
2018-12-07T20:29:30.568Z,0.27
2018-12-07T20:32:00.047Z,0.50
2018-12-07T20:34:29.112Z,0.30
2018-12-07T20:36:58.081Z,0.53
2018-12-07T20:39:27.464Z,0.60
2018-12-07T20:41:56.585Z,0.30
2018-12-07T20:44:25.620Z,0.43
2018-12-07T20:46:54.591Z,0.30
2018-12-07T20:49:23.679Z,0.30
2018-12-07T20:51:52.639Z,0.30
2018-12-07T20:54:21.601Z,0.30
2018-12-07T20:56:50.597Z,0.73
2018-12-07T20:59:19.839Z,0.63
2018-12-07T21:01:51.777Z,0.33
2018-12-07T21:04:31.796Z,0.43
2018-12-07T21:09:24.299Z,0.70
2018-12-07T21:11:58.553Z,0.60
2018-12-07T21:14:37.060Z,0.90
2018-12-07T21:17:12.929Z,0.40
2018-12-07T21:20:45.599Z,0.80
